createdAt,value
2023-05-20T00:00:11.767Z,19.00
2023-05-20T00:01:14.772Z,19.00
2023-05-20T00:02:17.705Z,19.00
2023-05-20T00:03:24.257Z,18.00
2023-05-20T00:04:27.268Z,17.00
2023-05-20T00:05:30.147Z,18.50
2023-05-20T00:06:33.633Z,18.50
2023-05-20T00:07:36.638Z,17.50
2023-05-20T00:08:39.501Z,18.00
2023-05-20T00:09:42.938Z,17.00
2023-05-20T00:10:45.880Z,17.00
2023-05-20T00:11:48.765Z,18.00
2023-05-20T00:12:51.613Z,18.50
2023-05-20T00:13:54.426Z,19.25
2023-05-20T00:14:57.443Z,17.75
2023-05-20T00:16:00.519Z,17.50
2023-05-20T00:17:03.534Z,17.50
2023-05-20T00:18:06.503Z,17.00
2023-05-20T00:19:09.617Z,17.75
2023-05-20T00:20:12.894Z,19.50
2023-05-20T00:21:15.816Z,18.50
2023-05-20T00:22:18.774Z,18.00
2023-05-20T00:23:21.872Z,17.50
2023-05-20T00:24:25.685Z,18.25
2023-05-20T00:25:28.691Z,18.50
2023-05-20T00:26:32.196Z,18.50
2023-05-20T00:27:35.063Z,18.75
2023-05-20T00:28:38.079Z,19.50
2023-05-20T00:29:40.892Z,18.25
2023-05-20T00:30:43.817Z,18.50
2023-05-20T00:31:46.899Z,19.50
2023-05-20T00:32:49.893Z,20.00
2023-05-20T00:33:53.060Z,20.50
2023-05-20T00:35:03.190Z,20.00
2023-05-20T00:36:06.886Z,20.25
2023-05-20T00:37:09.846Z,19.50
2023-05-20T00:38:12.748Z,18.50
2023-05-20T00:39:15.625Z,20.00
2023-05-20T00:40:18.563Z,18.75
2023-05-20T00:41:21.385Z,19.75
2023-05-20T00:42:29.886Z,19.50
2023-05-20T00:43:32.820Z,18.75
2023-05-20T00:44:35.690Z,18.75
2023-05-20T00:45:39.604Z,21.25
2023-05-20T00:46:42.609Z,23.00
2023-05-20T00:47:45.899Z,23.25
2023-05-20T00:48:49.325Z,22.00
2023-05-20T00:49:52.965Z,21.00
2023-05-20T00:50:55.895Z,21.00
2023-05-20T00:51:58.899Z,22.00
2023-05-20T00:53:01.956Z,21.50
2023-05-20T00:54:04.999Z,19.00
2023-05-20T00:55:08.236Z,20.00
2023-05-20T00:56:11.387Z,21.00
2023-05-20T00:57:15.123Z,19.00
2023-05-20T00:58:17.974Z,21.00
2023-05-20T00:59:20.833Z,22.00
2023-05-20T01:00:23.839Z,20.25
2023-05-20T01:01:26.995Z,20.50
2023-05-20T01:02:30.402Z,20.50
2023-05-20T01:03:33.854Z,20.00
2023-05-20T01:04:36.999Z,19.00
2023-05-20T01:05:42.222Z,20.00
2023-05-20T01:06:47.541Z,19.50
2023-05-20T01:07:50.459Z,18.50
2023-05-20T01:08:53.424Z,18.00
2023-05-20T01:09:57.434Z,17.50
2023-05-20T01:11:06.093Z,20.00
2023-05-20T01:12:40.524Z,20.00
2023-05-20T01:13:59.379Z,20.00
2023-05-20T01:15:13.845Z,19.75
2023-05-20T01:16:19.865Z,19.00
2023-05-20T01:17:23.730Z,20.00
2023-05-20T01:18:31.421Z,19.00
2023-05-20T01:19:43.533Z,18.25
2023-05-20T01:20:50.916Z,18.50
2023-05-20T01:21:55.504Z,18.25
2023-05-20T01:22:58.821Z,18.00
2023-05-20T01:24:03.042Z,19.00
2023-05-20T01:25:06.706Z,18.00
2023-05-20T01:26:11.789Z,19.00
2023-05-20T01:27:14.802Z,20.00
2023-05-20T01:28:19.186Z,20.50
2023-05-20T01:29:22.058Z,20.00
2023-05-20T01:30:30.342Z,19.00
2023-05-20T01:31:38.740Z,18.25
2023-05-20T01:32:49.828Z,18.00
2023-05-20T01:33:59.308Z,17.00
2023-05-20T01:35:03.282Z,17.00
2023-05-20T01:36:07.842Z,19.50
2023-05-20T01:37:12.240Z,19.50
2023-05-20T01:38:17.056Z,19.00
2023-05-20T01:39:20.501Z,18.00
2023-05-20T01:40:24.954Z,18.50
2023-05-20T01:41:28.812Z,20.00
2023-05-20T01:42:31.653Z,20.25
2023-05-20T01:43:34.608Z,19.50
2023-05-20T01:44:38.247Z,19.00
2023-05-20T01:45:43.500Z,18.50
2023-05-20T01:46:51.015Z,19.50
2023-05-20T01:47:54.293Z,19.00
2023-05-20T01:48:57.368Z,20.25
2023-05-20T01:50:00.255Z,20.75
2023-05-20T01:51:03.264Z,19.00
2023-05-20T01:52:06.516Z,20.00
2023-05-20T01:53:10.892Z,21.50
2023-05-20T01:54:13.795Z,21.00
2023-05-20T01:55:16.833Z,19.00
2023-05-20T01:56:19.710Z,19.75
2023-05-20T01:57:25.607Z,20.75
2023-05-20T01:58:28.470Z,21.50
2023-05-20T01:59:31.385Z,20.00
2023-05-20T02:00:36.262Z,20.00
2023-05-20T02:01:39.211Z,19.00
2023-05-20T02:02:42.326Z,19.50
2023-05-20T02:03:45.249Z,21.00
2023-05-20T02:04:50.081Z,20.00
2023-05-20T02:05:53.059Z,19.50
2023-05-20T02:06:55.925Z,19.00
2023-05-20T02:07:58.827Z,19.00
2023-05-20T02:09:01.819Z,19.00
2023-05-20T02:10:05.537Z,17.50
2023-05-20T02:11:08.535Z,18.00
2023-05-20T02:12:17.517Z,18.00
2023-05-20T02:13:20.551Z,18.00
2023-05-20T02:14:23.511Z,19.00
2023-05-20T02:15:26.449Z,19.00
2023-05-20T02:16:29.494Z,20.00
2023-05-20T02:17:32.383Z,22.00
2023-05-20T02:18:36.539Z,20.00
2023-05-20T02:19:39.406Z,21.00
2023-05-20T02:20:42.529Z,19.75
2023-05-20T02:21:46.853Z,20.00
2023-05-20T02:22:49.709Z,19.00
2023-05-20T02:23:53.160Z,19.25
2023-05-20T02:24:56.007Z,20.00
2023-05-20T02:25:58.890Z,19.00
2023-05-20T02:27:02.950Z,20.50
2023-05-20T02:28:07.214Z,19.00
2023-05-20T02:29:10.124Z,19.00
2023-05-20T02:30:13.360Z,18.00
2023-05-20T02:31:16.260Z,19.00
2023-05-20T02:32:19.097Z,19.00
2023-05-20T02:33:22.227Z,18.00
2023-05-20T02:34:27.190Z,17.00
2023-05-20T02:35:30.073Z,18.25
2023-05-20T02:36:33.710Z,19.50
2023-05-20T02:37:36.685Z,18.00
2023-05-20T02:38:39.528Z,19.50
2023-05-20T02:39:42.574Z,19.50
2023-05-20T02:40:46.286Z,18.50
2023-05-20T02:41:49.401Z,18.50
2023-05-20T02:42:52.219Z,19.50
2023-05-20T02:43:55.526Z,19.50
2023-05-20T02:45:00.068Z,18.50
2023-05-20T02:46:03.069Z,18.50
2023-05-20T02:47:06.044Z,19.50
2023-05-20T02:48:09.097Z,18.50
2023-05-20T02:49:12.028Z,18.50
2023-05-20T02:50:14.903Z,18.50
2023-05-20T02:51:17.847Z,18.00
2023-05-20T02:52:20.835Z,19.00
2023-05-20T02:53:23.880Z,19.00
2023-05-20T02:54:27.003Z,19.00
2023-05-20T02:55:30.126Z,18.00
2023-05-20T02:56:33.798Z,18.50
2023-05-20T02:57:39.535Z,19.25
2023-05-20T02:58:42.918Z,19.00
2023-05-20T02:59:45.798Z,17.00
2023-05-20T03:00:49.030Z,16.00
2023-05-20T03:01:52.251Z,18.75
2023-05-20T03:02:55.250Z,18.50
2023-05-20T03:03:58.202Z,19.50
2023-05-20T03:05:01.381Z,20.00
2023-05-20T03:06:04.358Z,19.00
2023-05-20T03:07:08.905Z,20.00
2023-05-20T03:08:12.136Z,17.00
2023-05-20T03:09:15.679Z,17.00
2023-05-20T03:10:18.635Z,16.00
2023-05-20T03:11:23.134Z,17.50
2023-05-20T03:12:27.585Z,18.50
2023-05-20T03:13:30.446Z,18.00
2023-05-20T03:14:33.297Z,20.00
2023-05-20T03:15:37.207Z,18.75
2023-05-20T03:16:41.239Z,17.00
2023-05-20T03:17:44.081Z,18.25
2023-05-20T03:18:47.572Z,17.50
2023-05-20T03:19:50.472Z,17.50
2023-05-20T03:20:53.438Z,19.00
2023-05-20T03:21:56.751Z,18.00
2023-05-20T03:22:59.997Z,19.00
2023-05-20T03:24:02.924Z,17.50
2023-05-20T03:25:07.405Z,16.75
2023-05-20T03:26:10.300Z,17.50
2023-05-20T03:27:13.356Z,17.50
2023-05-20T03:28:16.228Z,18.50
2023-05-20T03:29:22.592Z,18.25
2023-05-20T03:30:25.701Z,18.25
2023-05-20T03:31:28.655Z,18.00
2023-05-20T03:32:31.634Z,18.00
2023-05-20T03:33:36.795Z,17.00
2023-05-20T03:34:39.736Z,16.00
2023-05-20T03:35:42.704Z,16.00
2023-05-20T03:36:46.042Z,16.75
2023-05-20T03:37:48.984Z,17.00
2023-05-20T03:38:51.840Z,17.00
2023-05-20T03:39:54.735Z,17.00
2023-05-20T03:40:57.706Z,18.75
2023-05-20T03:42:00.546Z,19.00
2023-05-20T03:43:03.483Z,17.00
2023-05-20T03:44:06.622Z,18.00
2023-05-20T03:45:10.109Z,18.25
2023-05-20T03:46:12.952Z,18.75
2023-05-20T03:47:15.858Z,19.75
2023-05-20T03:48:18.708Z,19.00
2023-05-20T03:49:21.876Z,18.00
2023-05-20T03:50:24.752Z,17.00
2023-05-20T03:51:28.142Z,19.00
2023-05-20T03:52:30.988Z,17.50
2023-05-20T03:53:33.901Z,16.50
2023-05-20T03:54:37.993Z,18.00
2023-05-20T03:55:41.325Z,19.00
2023-05-20T03:56:44.232Z,18.00
2023-05-20T03:57:47.163Z,18.00
2023-05-20T03:58:50.060Z,17.50
2023-05-20T03:59:52.922Z,17.00
2023-05-20T04:00:56.121Z,19.00
2023-05-20T04:01:59.010Z,19.00
2023-05-20T04:03:02.533Z,17.25
2023-05-20T04:04:05.856Z,17.00
2023-05-20T04:05:10.285Z,16.00
2023-05-20T04:06:13.159Z,16.50
2023-05-20T04:07:16.020Z,18.00
2023-05-20T04:08:20.129Z,18.00
2023-05-20T04:09:24.153Z,17.00
2023-05-20T04:10:27.073Z,16.50
2023-05-20T04:11:29.970Z,17.00
2023-05-20T04:12:33.823Z,18.00
2023-05-20T04:13:36.681Z,16.50
2023-05-20T04:14:40.273Z,15.00
2023-05-20T04:15:43.227Z,16.50
2023-05-20T04:16:47.061Z,18.50
2023-05-20T04:17:50.176Z,19.00
2023-05-20T04:18:53.811Z,18.00
2023-05-20T04:19:58.075Z,17.00
2023-05-20T04:21:02.914Z,17.50
2023-05-20T04:22:06.187Z,18.75
2023-05-20T04:23:09.068Z,17.00
2023-05-20T04:24:12.283Z,19.00
2023-05-20T04:25:15.506Z,18.00
2023-05-20T04:26:18.322Z,18.75
2023-05-20T04:27:21.797Z,17.00
2023-05-20T04:28:25.200Z,17.25
2023-05-20T04:29:28.039Z,18.00
2023-05-20T04:30:31.479Z,17.00
2023-05-20T04:31:34.379Z,16.50
2023-05-20T04:32:37.491Z,16.00
2023-05-20T04:33:40.427Z,17.50
2023-05-20T04:34:43.307Z,17.00
2023-05-20T04:35:46.234Z,17.50
2023-05-20T04:36:50.312Z,17.00
2023-05-20T04:37:55.231Z,17.50
2023-05-20T04:38:58.582Z,16.75
2023-05-20T04:40:04.566Z,17.50
2023-05-20T04:41:08.425Z,17.00
2023-05-20T04:42:11.342Z,19.50
2023-05-20T04:43:14.232Z,18.00
2023-05-20T04:44:17.100Z,17.50
2023-05-20T04:45:20.056Z,17.00
2023-05-20T04:46:22.983Z,17.50
2023-05-20T04:47:26.019Z,18.00
2023-05-20T04:48:29.027Z,16.50
2023-05-20T04:49:31.911Z,17.00
2023-05-20T04:50:36.159Z,18.00
2023-05-20T04:51:39.373Z,17.50
2023-05-20T04:52:47.332Z,18.25
2023-05-20T04:53:52.118Z,19.50
2023-05-20T04:54:55.326Z,19.00
2023-05-20T04:55:58.536Z,18.00
2023-05-20T04:57:01.413Z,17.25
2023-05-20T04:58:05.259Z,18.00
2023-05-20T04:59:08.831Z,18.00
2023-05-20T05:00:13.656Z,18.50
2023-05-20T05:01:16.766Z,18.50
2023-05-20T05:02:19.668Z,19.50
2023-05-20T05:03:22.738Z,20.75
2023-05-20T05:04:25.653Z,21.00
2023-05-20T05:05:28.521Z,20.00
2023-05-20T05:06:31.404Z,18.25
2023-05-20T05:07:34.332Z,18.50
2023-05-20T05:08:37.272Z,17.00
2023-05-20T05:09:40.141Z,18.00
2023-05-20T05:10:42.984Z,18.00
2023-05-20T05:11:45.893Z,18.50
2023-05-20T05:12:49.681Z,17.50
2023-05-20T05:13:52.756Z,19.00
2023-05-20T05:14:55.600Z,19.00
2023-05-20T05:16:02.139Z,18.00
2023-05-20T05:17:05.361Z,18.25
2023-05-20T05:18:08.581Z,19.25
2023-05-20T05:19:11.514Z,19.00
2023-05-20T05:20:14.414Z,18.00
2023-05-20T05:21:17.529Z,19.00
2023-05-20T05:22:20.360Z,18.00
2023-05-20T05:23:23.227Z,18.50
2023-05-20T05:24:26.066Z,20.00
2023-05-20T05:25:28.886Z,21.00
2023-05-20T05:26:31.772Z,20.75
2023-05-20T05:27:34.805Z,20.50
2023-05-20T05:28:38.062Z,19.00
2023-05-20T05:29:41.158Z,19.75
2023-05-20T05:30:44.015Z,19.00
2023-05-20T05:31:46.894Z,17.00
2023-05-20T05:32:49.889Z,18.00
2023-05-20T05:33:52.969Z,19.00
2023-05-20T05:34:55.846Z,18.00
2023-05-20T05:36:00.280Z,19.25
2023-05-20T05:37:03.132Z,20.00
2023-05-20T05:38:06.029Z,19.00
2023-05-20T05:39:09.393Z,18.00
2023-05-20T05:40:12.712Z,19.25
2023-05-20T05:41:15.671Z,20.00
2023-05-20T05:42:18.549Z,19.00
2023-05-20T05:43:21.616Z,19.50
2023-05-20T05:44:24.522Z,18.00
2023-05-20T05:45:27.361Z,19.00
2023-05-20T05:46:30.310Z,20.00
2023-05-20T05:47:33.922Z,19.00
2023-05-20T05:48:38.208Z,18.00
2023-05-20T05:49:41.083Z,19.00
2023-05-20T05:50:48.258Z,19.00
2023-05-20T05:51:52.622Z,19.00
2023-05-20T05:52:55.501Z,18.75
2023-05-20T05:53:58.439Z,21.00
2023-05-20T05:55:01.912Z,21.00
2023-05-20T05:56:04.896Z,20.00
2023-05-20T05:57:09.100Z,19.00
2023-05-20T05:58:11.963Z,20.00
2023-05-20T05:59:14.842Z,19.00
2023-05-20T06:00:18.308Z,20.00
2023-05-20T06:01:21.161Z,21.00
2023-05-20T06:02:24.115Z,19.00
2023-05-20T06:03:27.061Z,21.00
2023-05-20T06:04:30.053Z,19.00
2023-05-20T06:05:33.927Z,18.00
2023-05-20T06:06:37.276Z,19.00
2023-05-20T06:07:40.204Z,20.00
2023-05-20T06:08:43.221Z,20.00
2023-05-20T06:09:47.055Z,19.00
2023-05-20T06:10:52.792Z,20.00
2023-05-20T06:11:55.682Z,20.50
2023-05-20T06:12:58.568Z,20.25
2023-05-20T06:14:02.198Z,19.00
2023-05-20T06:15:05.477Z,19.00
2023-05-20T06:16:08.397Z,19.00
2023-05-20T06:17:11.270Z,19.75
2023-05-20T06:18:14.614Z,19.00
2023-05-20T06:19:18.032Z,18.00
2023-05-20T06:20:21.033Z,19.75
2023-05-20T06:21:24.706Z,19.00
2023-05-20T06:22:27.569Z,20.00
2023-05-20T06:23:30.456Z,19.00
2023-05-20T06:24:35.307Z,19.00
2023-05-20T06:25:38.160Z,20.00
2023-05-20T06:26:41.037Z,21.00
2023-05-20T06:27:43.899Z,22.00
2023-05-20T06:28:46.757Z,19.25
2023-05-20T06:29:49.656Z,19.25
2023-05-20T06:30:54.246Z,20.00
2023-05-20T06:31:57.205Z,19.75
2023-05-20T06:33:00.127Z,19.75
2023-05-20T06:34:03.095Z,19.00
2023-05-20T06:35:06.430Z,20.00
2023-05-20T06:36:09.385Z,19.00
2023-05-20T06:37:12.746Z,19.25
2023-05-20T06:38:15.616Z,21.00
2023-05-20T06:39:18.523Z,20.00
2023-05-20T06:40:21.417Z,21.00
2023-05-20T06:41:24.308Z,20.00
2023-05-20T06:42:27.975Z,21.00
2023-05-20T06:43:30.878Z,19.50
2023-05-20T06:44:33.819Z,18.75
2023-05-20T06:45:36.736Z,20.00
2023-05-20T06:46:39.653Z,19.00
2023-05-20T06:47:42.632Z,18.75
2023-05-20T06:48:45.537Z,21.25
2023-05-20T06:49:48.379Z,21.00
2023-05-20T06:50:51.345Z,21.00
2023-05-20T06:51:54.451Z,21.25
2023-05-20T06:52:57.320Z,20.00
2023-05-20T06:54:00.176Z,19.50
2023-05-20T06:55:03.387Z,19.00
2023-05-20T06:56:06.559Z,19.00
2023-05-20T06:57:10.575Z,21.00
2023-05-20T06:58:13.519Z,22.25
2023-05-20T06:59:16.409Z,19.00
2023-05-20T07:00:19.480Z,20.50
2023-05-20T07:01:22.386Z,22.50
2023-05-20T07:02:26.481Z,21.00
2023-05-20T07:03:29.387Z,20.00
2023-05-20T07:04:32.204Z,19.00
2023-05-20T07:05:35.256Z,21.25
2023-05-20T07:06:38.507Z,21.00
2023-05-20T07:07:41.486Z,20.25
2023-05-20T07:08:44.480Z,21.00
2023-05-20T07:09:47.363Z,20.25
2023-05-20T07:10:50.264Z,19.00
2023-05-20T07:11:53.240Z,20.25
2023-05-20T07:12:56.163Z,21.50
2023-05-20T07:13:59.057Z,20.00
2023-05-20T07:15:02.728Z,18.50
2023-05-20T07:16:05.935Z,20.00
2023-05-20T07:17:09.413Z,21.00
2023-05-20T07:18:12.895Z,23.00
2023-05-20T07:19:15.965Z,20.00
2023-05-20T07:20:18.924Z,21.00
2023-05-20T07:21:21.789Z,20.00
2023-05-20T07:22:24.680Z,20.25
2023-05-20T07:23:27.663Z,21.00
2023-05-20T07:24:30.515Z,19.75
2023-05-20T07:25:33.625Z,19.25
2023-05-20T07:26:37.808Z,21.50
2023-05-20T07:27:40.761Z,22.00
2023-05-20T07:28:43.639Z,20.00
2023-05-20T07:29:46.508Z,19.00
2023-05-20T07:30:52.116Z,20.00
2023-05-20T07:31:56.158Z,19.75
2023-05-20T07:32:59.080Z,20.00
2023-05-20T07:34:02.080Z,21.00
2023-05-20T07:35:05.155Z,21.00
2023-05-20T07:36:10.340Z,20.00
2023-05-20T07:37:14.074Z,20.75
2023-05-20T07:38:17.030Z,23.00
2023-05-20T07:39:19.903Z,22.25
2023-05-20T07:40:22.835Z,22.00
2023-05-20T07:41:25.805Z,21.00
2023-05-20T07:42:28.676Z,20.75
2023-05-20T07:43:31.714Z,19.25
2023-05-20T07:44:34.607Z,21.00
2023-05-20T07:45:38.401Z,22.25
2023-05-20T07:46:43.049Z,22.00
2023-05-20T07:47:46.100Z,21.00
2023-05-20T07:48:49.056Z,18.75
2023-05-20T07:49:51.905Z,19.00
2023-05-20T07:50:54.845Z,17.75
2023-05-20T07:51:57.700Z,20.00
2023-05-20T07:53:01.167Z,20.00
2023-05-20T07:54:04.260Z,20.00
2023-05-20T07:55:09.476Z,22.00
2023-05-20T07:56:12.914Z,20.00
2023-05-20T07:57:17.750Z,20.25
2023-05-20T07:58:20.985Z,20.00
2023-05-20T07:59:23.944Z,19.00
2023-05-20T08:00:27.258Z,21.00
2023-05-20T08:01:31.446Z,21.00
2023-05-20T08:02:35.781Z,19.50
2023-05-20T08:03:38.774Z,19.50
2023-05-20T08:04:41.783Z,19.00
2023-05-20T08:05:44.696Z,18.25
2023-05-20T08:06:48.097Z,24.00
2023-05-20T08:07:51.629Z,20.00
2023-05-20T08:08:57.354Z,20.25
2023-05-20T08:10:00.295Z,20.00
2023-05-20T08:11:03.402Z,20.50
2023-05-20T08:12:07.309Z,21.75
2023-05-20T08:13:12.428Z,22.00
2023-05-20T08:14:15.578Z,20.00
2023-05-20T08:15:18.466Z,20.00
2023-05-20T08:16:23.192Z,18.00
2023-05-20T08:17:26.268Z,19.75
2023-05-20T08:18:29.311Z,19.00
2023-05-20T08:19:32.258Z,19.75
2023-05-20T08:20:35.102Z,21.50
2023-05-20T08:21:38.988Z,21.00
2023-05-20T08:22:42.233Z,20.00
2023-05-20T08:23:45.174Z,21.50
2023-05-20T08:24:48.367Z,23.00
2023-05-20T08:25:51.264Z,21.00
2023-05-20T08:26:54.603Z,22.00
2023-05-20T08:27:57.630Z,21.00
2023-05-20T08:29:00.507Z,22.25
2023-05-20T08:30:03.815Z,22.00
2023-05-20T08:31:06.803Z,20.00
2023-05-20T08:32:09.755Z,23.00
2023-05-20T08:33:13.837Z,21.00
2023-05-20T08:34:16.856Z,19.00
2023-05-20T08:35:21.752Z,19.00
2023-05-20T08:36:41.281Z,19.00
2023-05-20T08:37:44.118Z,19.00
2023-05-20T08:38:47.442Z,20.00
2023-05-20T08:39:51.259Z,21.50
2023-05-20T08:40:58.601Z,22.00
2023-05-20T08:42:01.641Z,21.00
2023-05-20T08:43:05.617Z,20.25
2023-05-20T08:44:12.486Z,21.25
2023-05-20T08:45:19.191Z,22.25
2023-05-20T08:46:23.867Z,22.00
2023-05-20T08:47:27.853Z,19.75
2023-05-20T08:48:31.939Z,18.00
2023-05-20T08:49:35.056Z,21.00
2023-05-20T08:50:38.448Z,21.00
2023-05-20T08:51:41.643Z,20.00
2023-05-20T08:52:46.890Z,20.00
2023-05-20T08:53:49.821Z,20.75
2023-05-20T08:54:53.581Z,20.75
2023-05-20T08:56:01.398Z,20.00
2023-05-20T08:57:06.040Z,21.00
2023-05-20T08:58:09.105Z,20.00
2023-05-20T08:59:12.024Z,22.00
2023-05-20T09:00:18.303Z,22.00
2023-05-20T09:01:26.256Z,21.75
2023-05-20T09:02:29.352Z,22.00
2023-05-20T09:03:33.462Z,19.50
2023-05-20T09:04:36.392Z,21.00
2023-05-20T09:05:39.387Z,21.00
2023-05-20T09:06:46.632Z,20.00
2023-05-20T09:07:49.897Z,19.50
2023-05-20T09:08:53.959Z,20.50
2023-05-20T09:09:57.069Z,19.00
2023-05-20T09:11:00.003Z,19.00
2023-05-20T09:12:04.433Z,19.00
2023-05-20T09:13:08.676Z,18.00
2023-05-20T09:14:11.798Z,18.50
2023-05-20T09:15:14.716Z,20.00
2023-05-20T09:16:17.678Z,18.00
2023-05-20T09:17:22.955Z,19.75
2023-05-20T09:18:28.007Z,19.75
2023-05-20T09:19:30.971Z,21.00
2023-05-20T09:20:36.641Z,22.00
2023-05-20T09:21:40.338Z,20.00
2023-05-20T09:22:43.205Z,22.25
2023-05-20T09:23:50.505Z,20.00
2023-05-20T09:24:53.682Z,20.00
2023-05-20T09:25:56.548Z,19.25
2023-05-20T09:27:00.008Z,21.50
2023-05-20T09:28:03.243Z,20.00
2023-05-20T09:29:06.472Z,23.00
2023-05-20T09:30:10.426Z,21.75
2023-05-20T09:31:16.155Z,21.00
2023-05-20T09:32:22.208Z,20.00
2023-05-20T09:33:31.167Z,20.00
2023-05-20T09:34:34.098Z,21.75
2023-05-20T09:35:40.424Z,21.00
2023-05-20T09:36:44.996Z,19.50
2023-05-20T09:37:49.747Z,20.00
2023-05-20T09:39:00.946Z,22.00
2023-05-20T09:40:08.526Z,22.00
2023-05-20T09:41:16.675Z,20.00
2023-05-20T09:42:25.015Z,23.75
2023-05-20T09:43:28.735Z,21.00
2023-05-20T09:44:32.921Z,21.25
2023-05-20T09:45:36.664Z,21.25
2023-05-20T09:46:42.218Z,21.00
2023-05-20T09:47:46.150Z,21.75
2023-05-20T09:48:49.630Z,23.00
2023-05-20T09:49:54.912Z,22.00
2023-05-20T09:50:58.939Z,21.00
2023-05-20T09:52:04.909Z,22.00
2023-05-20T09:53:10.181Z,21.00
2023-05-20T09:54:14.374Z,21.00
2023-05-20T09:55:19.081Z,21.00
2023-05-20T09:56:23.716Z,22.00
2023-05-20T09:57:27.167Z,22.50
2023-05-20T09:58:31.493Z,19.50
2023-05-20T09:59:36.893Z,21.00
2023-05-20T10:00:39.820Z,21.00
2023-05-20T10:01:42.838Z,20.00
2023-05-20T10:02:48.224Z,21.00
2023-05-20T10:03:51.357Z,22.50
2023-05-20T10:04:57.360Z,21.00
2023-05-20T10:06:41.551Z,21.25
2023-05-20T10:08:01.131Z,20.50
2023-05-20T10:09:29.646Z,19.00
2023-05-20T10:10:40.101Z,20.00
2023-05-20T10:12:08.994Z,19.00
2023-05-20T10:13:33.311Z,21.00
2023-05-20T10:14:59.566Z,20.00
2023-05-20T10:16:25.806Z,20.00
2023-05-20T10:17:43.857Z,21.25
2023-05-20T10:19:14.013Z,20.75
2023-05-20T10:20:17.284Z,20.00
2023-05-20T10:21:25.731Z,21.00
2023-05-20T10:22:33.281Z,21.00
2023-05-20T10:23:36.142Z,21.00
2023-05-20T10:24:44.223Z,20.25
2023-05-20T10:25:53.572Z,17.00
2023-05-20T10:26:57.250Z,17.50
2023-05-20T10:28:10.480Z,18.75
2023-05-20T10:29:20.300Z,20.75
2023-05-20T10:30:23.852Z,20.00
2023-05-20T10:31:27.330Z,21.25
2023-05-20T10:32:34.524Z,19.00
2023-05-20T10:33:44.992Z,20.50
2023-05-20T10:34:50.282Z,21.00
2023-05-20T10:35:53.714Z,22.00
2023-05-20T10:36:56.510Z,20.00
2023-05-20T10:38:14.748Z,19.00
2023-05-20T10:39:18.774Z,18.25
2023-05-20T10:40:23.749Z,20.00
2023-05-20T10:41:30.429Z,19.00
2023-05-20T10:42:33.241Z,18.00
2023-05-20T10:43:36.119Z,19.00
2023-05-20T10:44:56.941Z,18.00
2023-05-20T10:46:03.250Z,19.50
2023-05-20T10:47:24.571Z,19.50
2023-05-20T10:48:34.544Z,17.75
2023-05-20T10:49:41.136Z,18.50
2023-05-20T10:50:44.318Z,21.00
2023-05-20T10:51:48.669Z,17.50
2023-05-20T10:52:52.261Z,19.00
2023-05-20T10:53:56.812Z,19.50
2023-05-20T10:55:01.708Z,19.50
2023-05-20T10:56:05.167Z,17.50
2023-05-20T10:57:13.450Z,20.50
2023-05-20T10:58:20.960Z,21.00
2023-05-20T10:59:24.087Z,19.00
2023-05-20T11:00:27.535Z,19.50
2023-05-20T11:01:30.727Z,17.25
2023-05-20T11:02:34.403Z,17.75
2023-05-20T11:03:38.567Z,19.50
2023-05-20T11:04:44.739Z,18.00
2023-05-20T11:05:48.799Z,19.00
2023-05-20T11:06:55.255Z,19.00
2023-05-20T11:08:13.649Z,20.00
2023-05-20T11:09:23.831Z,18.00
2023-05-20T11:10:26.758Z,20.00
2023-05-20T11:11:29.645Z,18.25
2023-05-20T11:12:34.327Z,20.00
2023-05-20T11:13:37.314Z,19.00
2023-05-20T11:14:40.247Z,17.50
2023-05-20T11:15:43.623Z,17.00
2023-05-20T11:16:47.572Z,18.00
2023-05-20T11:17:57.109Z,19.00
2023-05-20T11:19:00.228Z,18.25
2023-05-20T11:20:03.621Z,18.25
2023-05-20T11:21:06.593Z,19.00
2023-05-20T11:22:09.695Z,18.00
2023-05-20T11:23:16.695Z,18.00
2023-05-20T11:24:30.308Z,20.00
2023-05-20T11:25:34.593Z,19.00
2023-05-20T11:26:38.469Z,19.00
2023-05-20T11:27:41.528Z,17.00
2023-05-20T11:28:44.507Z,19.00
2023-05-20T11:29:50.839Z,19.50
2023-05-20T11:30:55.049Z,19.50
2023-05-20T11:31:58.004Z,20.50
2023-05-20T11:33:05.654Z,18.25
2023-05-20T11:34:08.578Z,20.00
2023-05-20T11:35:27.529Z,19.50
2023-05-20T11:36:31.632Z,19.00
2023-05-20T11:37:34.501Z,21.50
2023-05-20T11:38:37.758Z,20.00
2023-05-20T11:39:40.783Z,19.00
2023-05-20T11:40:50.873Z,19.00
2023-05-20T11:41:54.349Z,18.00
2023-05-20T11:42:58.687Z,19.00
2023-05-20T11:44:02.247Z,20.00
2023-05-20T11:45:05.415Z,19.50
2023-05-20T11:46:08.488Z,20.00
2023-05-20T11:47:11.359Z,18.50
2023-05-20T11:48:16.639Z,18.00
2023-05-20T11:49:19.527Z,19.50
2023-05-20T11:50:23.452Z,20.00
2023-05-20T11:51:29.043Z,21.00
2023-05-20T11:52:35.048Z,22.00
2023-05-20T11:53:42.397Z,20.00
2023-05-20T11:54:45.217Z,22.50
2023-05-20T11:55:51.076Z,17.25
2023-05-20T11:56:55.946Z,18.00
2023-05-20T11:57:59.753Z,17.00
2023-05-20T11:59:02.737Z,18.00
2023-05-20T12:00:08.690Z,19.00
2023-05-20T12:01:21.563Z,18.00
2023-05-20T12:02:25.923Z,18.00
2023-05-20T12:03:28.985Z,19.00
2023-05-20T12:04:31.941Z,18.00
2023-05-20T12:05:34.846Z,19.00
2023-05-20T12:06:48.110Z,20.00
2023-05-20T12:07:51.033Z,19.00
2023-05-20T12:08:53.882Z,19.00
2023-05-20T12:09:56.762Z,20.00
2023-05-20T12:10:59.794Z,18.75
2023-05-20T12:12:03.904Z,18.50
2023-05-20T12:13:10.060Z,18.50
2023-05-20T12:14:12.908Z,19.75
2023-05-20T12:15:15.916Z,22.00
2023-05-20T12:16:18.814Z,20.00
2023-05-20T12:17:21.924Z,19.50
2023-05-20T12:18:24.814Z,18.00
2023-05-20T12:19:27.733Z,20.75
2023-05-20T12:20:32.431Z,21.00
2023-05-20T12:21:35.473Z,21.00
2023-05-20T12:22:38.320Z,21.50
2023-05-20T12:23:41.168Z,21.00
2023-05-20T12:24:43.968Z,19.00
2023-05-20T12:25:48.501Z,18.50
2023-05-20T12:26:51.342Z,21.75
2023-05-20T12:27:54.339Z,19.50
2023-05-20T12:28:57.676Z,20.50
2023-05-20T12:30:00.986Z,20.00
2023-05-20T12:31:03.864Z,19.25
2023-05-20T12:32:07.209Z,21.00
2023-05-20T12:33:10.567Z,20.00
2023-05-20T12:34:13.471Z,20.75
2023-05-20T12:35:16.585Z,22.00
2023-05-20T12:36:20.803Z,19.00
2023-05-20T12:37:23.929Z,21.00
2023-05-20T12:38:27.280Z,21.00
2023-05-20T12:39:30.175Z,19.00
2023-05-20T12:40:33.355Z,19.00
2023-05-20T12:41:36.404Z,20.75
2023-05-20T12:42:40.609Z,20.50
2023-05-20T12:43:43.429Z,22.00
2023-05-20T12:44:46.324Z,20.00
2023-05-20T12:45:49.282Z,20.00
2023-05-20T12:46:52.176Z,20.75
2023-05-20T12:47:59.125Z,20.75
2023-05-20T12:49:02.022Z,22.50
2023-05-20T12:50:05.785Z,23.00
2023-05-20T12:51:08.627Z,21.00
2023-05-20T12:52:19.013Z,20.00
2023-05-20T12:53:25.033Z,20.50
2023-05-20T12:54:29.580Z,20.00
2023-05-20T12:55:32.496Z,22.00
2023-05-20T12:56:35.342Z,21.50
2023-05-20T12:57:38.185Z,21.00
2023-05-20T12:58:41.006Z,21.25
2023-05-20T12:59:43.864Z,20.00
2023-05-20T13:00:46.724Z,20.00
2023-05-20T13:01:50.001Z,21.00
2023-05-20T13:02:54.100Z,21.00
2023-05-20T13:03:57.154Z,20.00
2023-05-20T13:04:59.979Z,21.00
2023-05-20T13:06:02.992Z,20.00
2023-05-20T13:07:06.287Z,17.50
2023-05-20T13:08:11.334Z,19.50
2023-05-20T13:09:14.276Z,20.00
2023-05-20T13:10:18.474Z,19.00
2023-05-20T13:11:21.433Z,19.00
2023-05-20T13:12:24.293Z,17.25
2023-05-20T13:13:27.240Z,21.00
2023-05-20T13:14:30.831Z,21.50
2023-05-20T13:15:34.455Z,20.00
2023-05-20T13:16:37.538Z,20.00
2023-05-20T13:17:41.071Z,19.50
2023-05-20T13:18:43.947Z,20.25
2023-05-20T13:19:49.691Z,21.75
2023-05-20T13:20:52.644Z,20.50
2023-05-20T13:21:55.971Z,20.00
2023-05-20T13:22:59.290Z,19.25
2023-05-20T13:24:02.497Z,19.00
2023-05-20T13:25:06.284Z,20.00
2023-05-20T13:26:10.351Z,19.75
2023-05-20T13:27:13.325Z,18.50
2023-05-20T13:28:19.729Z,18.50
2023-05-20T13:29:22.740Z,19.00
2023-05-20T13:30:25.641Z,20.50
2023-05-20T13:31:28.536Z,20.00
2023-05-20T13:32:31.836Z,21.75
2023-05-20T13:33:34.748Z,20.50
2023-05-20T13:34:38.872Z,20.00
2023-05-20T13:35:41.711Z,21.00
2023-05-20T13:36:44.826Z,22.00
2023-05-20T13:37:47.692Z,21.00
2023-05-20T13:38:50.666Z,18.00
2023-05-20T13:39:53.720Z,20.00
2023-05-20T13:41:00.479Z,19.00
2023-05-20T13:42:03.884Z,18.25
2023-05-20T13:43:06.747Z,19.00
2023-05-20T13:44:10.134Z,20.50
2023-05-20T13:45:13.349Z,22.00
2023-05-20T13:46:17.681Z,19.00
2023-05-20T13:47:20.590Z,20.00